KFEP Airport (Albertus) Information

FAA: FEP - ICAO: KFEP

KFEP Airport Location

State Illinois
County Stephenson
City Freeport
KFEP Airport is 3 miles southeast of Freeport, IL.
Latitude 42-14-46.0130N
Longitude 089-34-55.1160W
Elevation 859ft

KFEP Airport METARs

METAR KFEP 302235Z AUTO 14004KT 10SM CLR 19/09 A3019 RMK AO2 T01910088
Altimeter 30.19"
Temperature 19.1°C (66.4°F)
Wind 140° at 4KT
Clouds Skies are clear.
Visibility 10.0mi
Time observed: 2022-09-30T22:35:00Z

KFEP Airport Details

Status Operational
Activation October 1945
Ownership Public
Usage Public
Chart CHICAGO
ATC on-site No
Beacon schedule sunset-sunrise
Beacon color clear green

KFEP Airport Contacts

Owner CITY OF FREEPORT
Owner address CITY HALL , 314 W. STEPHENSON, 324 W. STEPHENSON, FREEPORT, IL 61032
Owner phone 815-235-8200
Manager DONALD HJORTLAND
Manager address 105 PRECISION RD, FOX LAKE, IL 60020
Manager phone 847-587-1515

KFEP Airport (Albertus) Radio Frequencies

KFEP (Airport) Radio Frequencies

UNICOM 122.8
Common traffic advisory frequency (CTAF) 122.8